Flight Track Log - Related Links

Times and Time Zones

All times are in EDT time to prevent confusion due to time zone crossing. See the N147NA flight status page for this flight to view local times or setup timezone preferences in your user account.

Time Position Orientation Groundspeed Altitude Reporting Facility
EDT Latitude Longitude Course Direction KTS MPH feet Rate Location/Type
Sun 05:27:09 PM 33.9675 -83.8986 149° Southeast 152 175 4,000  Level Atlanta Center
Sun 05:28:09 PM 33.9422 -83.8561 126° Southeast 162 186 6,000 2,050 Climbing Atlanta Center
Sun 05:29:09 PM 33.9214 -83.8061 117° Southeast 162 186 8,100 1,900 Climbing Atlanta Center
Sun 05:30:09 PM 33.9044 -83.7483 109° East 162 186 9,800 1,450 Climbing Atlanta Center
Sun 05:31:09 PM 33.8919 -83.6808 103° East 181 208 11,000 1,550 Climbing Atlanta Center
Sun 05:32:00 PM 33.8667 -83.5320 149° Southeast  Level Estimated
Sun 05:32:09 PM 33.8769 -83.6183 106° East 199 229 12,900  Level Atlanta Center
Sun 05:33:09 PM 33.8581 -83.5511 109° East 205 236 13,000 50 Climbing Atlanta Center
Sun 05:34:09 PM 33.8408 -83.4786 106° East 215 247 13,000  Level Atlanta Center
Sun 05:35:09 PM 33.8239 -83.4086 106° East 215 247 13,000  Level Atlanta Center
Sun 05:36:09 PM 33.8047 -83.3364 108° East 226 260 13,000 -250 Level Atlanta Center
Sun 05:37:09 PM 33.7833 -83.2639 110° East 226 260 12,500 -700 Descending Atlanta Center
Sun 05:38:09 PM 33.7642 -83.1942 108° East 226 260 11,600 -700 Descending Atlanta Center
Sun 05:39:09 PM 33.7492 -83.1294 106° East 226 260 11,100 -250 Descending Atlanta Center
Sun 05:40:09 PM 33.7339 -83.0572 104° East 226 260 11,100  Level Atlanta Center
Sun 05:41:09 PM 33.7147 -82.9900 109° East 220 253 11,100  Level Atlanta Center
Sun 05:42:09 PM 33.6931 -82.9178 110° East 220 253 11,100 -150 Level Atlanta Center
Sun 05:43:09 PM 33.6758 -82.8481 107° East 220 253 10,800 -367 Descending Atlanta Center
Sun 05:45:09 PM 33.6367 -82.7014 108° East 225 259 10,000 -233 Descending Atlanta Center
Sun 05:46:09 PM 33.6214 -82.6294 104° East 225 259 10,100 50 Climbing Atlanta Center
Sun 05:47:09 PM 33.6017 -82.5672 111° Southeast 225 259 10,100 -50 Level Atlanta Center
Sun 05:48:09 PM 33.5864 -82.4978 105° East 225 259 10,000 -50 Descending Atlanta Center
Sun 05:49:09 PM 33.5686 -82.4308 108° East 225 259 10,000 -400 Level Atlanta Center
Sun 05:50:09 PM 33.5489 -82.3614 109° East 225 259 9,200 -800 Descending Atlanta Center
Sun 05:52:00 PM 33.5104 -82.2417 107° East  Level FlightAware Approximate

Login

Don't have an account? Register now (free) for customized features, flight alerts, and more!